createdAt,value
2019-02-22T00:01:57.238Z,76.60
2019-02-22T00:04:26.128Z,76.30
2019-02-22T00:06:54.451Z,76.90
2019-02-22T00:09:22.592Z,77.90
2019-02-22T00:11:51.452Z,77.60
2019-02-22T00:14:20.145Z,77.80
2019-02-22T00:16:48.223Z,77.80
2019-02-22T00:19:16.201Z,78.50
2019-02-22T00:21:44.265Z,78.30
2019-02-22T00:24:12.392Z,77.90
2019-02-22T00:26:40.931Z,78.50
2019-02-22T00:29:09.336Z,79.00
2019-02-22T00:31:37.371Z,77.70
2019-02-22T00:34:05.461Z,78.00
2019-02-22T00:36:34.079Z,78.30
2019-02-22T00:39:01.812Z,78.40
2019-02-22T00:41:30.076Z,78.00
2019-02-22T00:43:58.940Z,78.00
2019-02-22T00:46:27.604Z,78.50
2019-02-22T00:48:56.448Z,78.10
2019-02-22T00:51:24.806Z,78.30
2019-02-22T00:53:53.456Z,77.80
2019-02-22T00:56:22.792Z,78.10
2019-02-22T00:58:51.609Z,78.40
2019-02-22T01:01:19.314Z,78.30
2019-02-22T01:03:47.893Z,77.40
2019-02-22T01:06:15.900Z,77.90
2019-02-22T01:08:44.192Z,77.80
2019-02-22T01:11:12.576Z,78.50
2019-02-22T01:13:40.915Z,78.40
2019-02-22T01:16:09.438Z,77.60
2019-02-22T01:18:37.829Z,77.60
2019-02-22T01:21:05.912Z,77.50
2019-02-22T01:23:34.175Z,78.10
2019-02-22T01:26:01.872Z,76.00
2019-02-22T01:28:30.298Z,78.10
2019-02-22T01:30:58.891Z,76.60
2019-02-22T01:33:26.769Z,77.00
2019-02-22T01:35:55.162Z,77.50
2019-02-22T01:38:23.182Z,78.70
2019-02-22T01:40:51.029Z,78.60
2019-02-22T01:43:19.243Z,76.80
2019-02-22T01:45:47.308Z,77.20
2019-02-22T01:48:17.661Z,78.20
2019-02-22T01:50:45.622Z,79.30
2019-02-22T01:53:13.759Z,79.00
2019-02-22T01:55:41.447Z,79.20
2019-02-22T01:58:09.826Z,78.30
2019-02-22T02:00:37.944Z,77.30
2019-02-22T02:03:06.598Z,78.50
2019-02-22T02:05:34.921Z,79.40
2019-02-22T02:08:04.878Z,79.00
2019-02-22T02:10:32.955Z,79.30
2019-02-22T02:13:03.502Z,80.50
2019-02-22T02:15:32.150Z,79.70
2019-02-22T02:18:00.556Z,81.30
2019-02-22T02:20:29.082Z,81.00
2019-02-22T02:22:56.810Z,80.70
2019-02-22T02:25:24.864Z,79.90
2019-02-22T02:27:53.162Z,79.20
2019-02-22T02:30:20.754Z,79.60
2019-02-22T02:32:49.124Z,79.10
2019-02-22T02:35:17.148Z,79.60
2019-02-22T02:37:45.543Z,81.50
2019-02-22T02:40:14.433Z,81.60
2019-02-22T02:42:42.111Z,81.50
2019-02-22T02:45:10.843Z,80.80
2019-02-22T02:47:38.465Z,81.10
2019-02-22T02:50:06.211Z,80.00
2019-02-22T02:52:34.578Z,80.00
2019-02-22T02:55:02.267Z,79.60
2019-02-22T02:57:31.049Z,79.30
2019-02-22T02:59:59.014Z,80.20
2019-02-22T03:02:29.271Z,80.60
2019-02-22T03:04:58.048Z,80.40
2019-02-22T03:07:43.648Z,80.80
2019-02-22T03:10:12.713Z,79.00
2019-02-22T03:12:41.522Z,79.70
2019-02-22T03:15:10.813Z,79.60
2019-02-22T03:17:38.566Z,80.40
2019-02-22T03:20:08.551Z,80.60
2019-02-22T03:22:36.959Z,80.90
2019-02-22T03:25:05.559Z,80.40
2019-02-22T03:27:34.012Z,81.10
2019-02-22T03:30:02.331Z,80.40
2019-02-22T03:32:30.779Z,81.10
2019-02-22T03:34:59.880Z,81.50
2019-02-22T03:37:27.534Z,80.80
2019-02-22T03:42:23.593Z,82.80
2019-02-22T03:44:51.877Z,82.40
2019-02-22T03:47:20.236Z,82.20
2019-02-22T03:49:51.086Z,82.10
2019-02-22T03:52:23.786Z,83.00
2019-02-22T03:54:51.371Z,83.50
2019-02-22T03:59:50.943Z,83.10
2019-02-22T04:02:18.454Z,84.10
2019-02-22T04:04:47.366Z,83.10
2019-02-22T04:07:15.268Z,84.10
2019-02-22T04:09:43.681Z,83.10
2019-02-22T04:12:11.744Z,84.20
2019-02-22T04:14:39.792Z,82.10
2019-02-22T04:17:08.204Z,83.10
2019-02-22T04:19:39.019Z,84.00
2019-02-22T04:22:07.394Z,82.10
2019-02-22T04:24:35.776Z,82.60
2019-02-22T04:27:04.201Z,82.90
2019-02-22T04:29:31.462Z,83.20
2019-02-22T04:31:59.815Z,84.20
2019-02-22T04:34:28.154Z,83.00
2019-02-22T04:36:58.791Z,84.50
2019-02-22T04:39:26.504Z,84.50
2019-02-22T04:41:58.290Z,85.10
2019-02-22T04:44:25.670Z,83.00
2019-02-22T04:46:54.318Z,82.50
2019-02-22T04:49:22.720Z,84.70
2019-02-22T04:51:50.979Z,84.50
2019-02-22T04:54:19.965Z,84.90
2019-02-22T04:56:48.393Z,85.60
2019-02-22T04:59:16.394Z,85.50
2019-02-22T05:01:45.149Z,86.00
2019-02-22T05:04:13.537Z,84.40
2019-02-22T05:06:42.779Z,83.90
2019-02-22T05:09:11.524Z,84.60
2019-02-22T05:11:42.173Z,83.00
2019-02-22T05:14:10.404Z,83.60
2019-02-22T05:16:38.726Z,83.60
2019-02-22T05:19:06.797Z,82.90
2019-02-22T05:21:35.250Z,83.50
2019-02-22T05:24:03.243Z,84.30
2019-02-22T05:26:31.621Z,83.80
2019-02-22T05:28:59.989Z,85.70
2019-02-22T05:31:28.759Z,86.10
2019-02-22T05:33:57.027Z,84.50
2019-02-22T05:36:25.831Z,85.00
2019-02-22T05:38:53.889Z,82.90
2019-02-22T05:41:22.289Z,83.50
2019-02-22T05:43:50.691Z,83.40
2019-02-22T05:46:19.252Z,83.80
2019-02-22T05:48:47.515Z,83.30
2019-02-22T05:51:15.942Z,84.20
2019-02-22T05:53:43.579Z,83.30
2019-02-22T05:56:12.655Z,83.30
2019-02-22T05:58:41.103Z,85.60
2019-02-22T06:01:09.206Z,84.80
2019-02-22T06:03:36.968Z,86.00
2019-02-22T06:06:04.679Z,83.40
2019-02-22T06:08:33.133Z,84.60
2019-02-22T06:11:00.788Z,84.70
2019-02-22T06:13:28.980Z,83.60
2019-02-22T06:15:57.610Z,81.60
2019-02-22T06:20:54.110Z,82.30
2019-02-22T06:23:21.764Z,81.80
2019-02-22T06:25:50.054Z,82.30
2019-02-22T06:28:18.414Z,82.30
2019-02-22T06:30:46.458Z,81.00
2019-02-22T06:33:14.533Z,81.40
2019-02-22T06:35:42.743Z,82.00
2019-02-22T06:38:10.796Z,81.60
2019-02-22T06:40:39.216Z,82.10
2019-02-22T06:43:08.118Z,81.70
2019-02-22T06:45:36.996Z,82.30
2019-02-22T06:48:05.241Z,82.30
2019-02-22T06:50:34.185Z,80.90
2019-02-22T06:53:01.994Z,81.60
2019-02-22T06:55:30.343Z,81.90
2019-02-22T06:57:58.457Z,81.10
2019-02-22T07:00:26.542Z,81.40
2019-02-22T07:02:54.910Z,81.10
2019-02-22T07:05:23.068Z,80.90
2019-02-22T07:07:50.741Z,80.70
2019-02-22T07:10:18.828Z,79.90
2019-02-22T07:13:01.324Z,80.60
2019-02-22T07:15:29.617Z,79.60
2019-02-22T07:17:57.995Z,80.80
2019-02-22T07:20:26.390Z,78.70
2019-02-22T07:22:54.467Z,78.50
2019-02-22T07:25:23.136Z,78.50
2019-02-22T07:27:51.407Z,79.30
2019-02-22T07:30:19.113Z,78.80
2019-02-22T07:35:15.430Z,78.20
2019-02-22T07:37:43.516Z,78.30
2019-02-22T07:40:11.632Z,78.00
2019-02-22T07:42:40.045Z,77.70
2019-02-22T07:45:18.214Z,77.00
2019-02-22T07:47:46.535Z,77.80
2019-02-22T07:50:14.909Z,77.80
2019-02-22T07:52:45.225Z,78.00
2019-02-22T07:55:12.701Z,77.00
2019-02-22T07:57:40.665Z,77.50
2019-02-22T08:00:11.202Z,77.60
2019-02-22T08:02:39.588Z,77.20
2019-02-22T08:05:09.206Z,75.10
2019-02-22T08:07:38.686Z,74.70
2019-02-22T08:10:06.881Z,74.20
2019-02-22T08:12:36.065Z,74.80
2019-02-22T08:15:04.243Z,74.60
2019-02-22T08:17:32.143Z,74.30
2019-02-22T08:20:00.330Z,74.20
2019-02-22T08:22:28.669Z,74.60
2019-02-22T08:24:57.563Z,72.80
2019-02-22T08:27:25.362Z,73.40
2019-02-22T08:29:53.703Z,73.40
2019-02-22T08:32:21.813Z,73.30
2019-02-22T08:34:49.830Z,71.00
2019-02-22T08:37:17.459Z,70.90
2019-02-22T08:39:57.470Z,70.60
2019-02-22T08:42:15.720Z,70.50
2019-02-22T08:44:44.079Z,70.10
2019-02-22T08:47:12.873Z,69.50
2019-02-22T08:49:40.832Z,69.70
2019-02-22T08:52:09.232Z,69.80
2019-02-22T08:54:46.694Z,67.00
2019-02-22T08:57:07.008Z,68.00
2019-02-22T08:59:35.381Z,68.10
2019-02-22T09:02:03.783Z,66.20
2019-02-22T09:04:31.952Z,66.10
2019-02-22T09:06:59.329Z,66.10
2019-02-22T09:09:27.859Z,65.40
2019-02-22T09:11:57.752Z,63.60
2019-02-22T09:14:26.076Z,64.10
2019-02-22T09:16:54.143Z,63.40
2019-02-22T09:19:21.771Z,63.60
2019-02-22T09:21:49.532Z,62.20
2019-02-22T09:24:17.376Z,62.70
2019-02-22T09:26:45.800Z,60.30
2019-02-22T09:29:14.097Z,60.60
2019-02-22T09:31:42.890Z,61.60
2019-02-22T09:34:11.748Z,60.90
2019-02-22T09:36:40.060Z,60.10
2019-02-22T09:39:08.207Z,60.50
2019-02-22T09:41:38.773Z,60.10
2019-02-22T09:44:06.967Z,60.50
2019-02-22T09:46:35.639Z,60.30
2019-02-22T09:49:03.324Z,61.00
2019-02-22T09:51:30.660Z,60.30
2019-02-22T09:53:59.114Z,60.30
2019-02-22T09:56:26.735Z,59.90
2019-02-22T09:58:55.651Z,60.00
2019-02-22T10:01:23.587Z,60.50
2019-02-22T10:03:52.067Z,59.50
2019-02-22T10:06:20.603Z,59.50
2019-02-22T10:08:49.172Z,58.40
2019-02-22T10:11:17.195Z,59.20
2019-02-22T10:18:49.667Z,59.00
2019-02-22T10:21:20.069Z,59.60
2019-02-22T10:23:48.565Z,56.20
2019-02-22T10:28:45.470Z,57.80
2019-02-22T10:31:13.471Z,57.90
2019-02-22T10:33:41.555Z,53.30
2019-02-22T10:36:09.896Z,51.40
2019-02-22T10:38:38.219Z,47.70
2019-02-22T10:41:07.573Z,45.00
2019-02-22T10:43:36.154Z,42.40
2019-02-22T10:46:04.554Z,43.20
2019-02-22T10:48:33.371Z,44.20
2019-02-22T10:51:00.734Z,43.10
2019-02-22T10:53:30.242Z,44.50
2019-02-22T10:55:58.122Z,46.50
2019-02-22T11:00:55.395Z,46.20
2019-02-22T11:03:25.013Z,47.70
2019-02-22T11:05:54.791Z,48.10
2019-02-22T11:08:23.192Z,48.70
2019-02-22T11:10:53.106Z,45.40
2019-02-22T11:13:24.584Z,45.60
2019-02-22T11:15:52.244Z,44.20
2019-02-22T11:18:20.271Z,45.90
2019-02-22T11:20:48.070Z,47.90
2019-02-22T11:23:16.748Z,47.80
2019-02-22T11:25:45.681Z,48.70
2019-02-22T11:28:13.914Z,49.80
2019-02-22T11:30:42.407Z,49.80
2019-02-22T11:33:09.871Z,50.10
2019-02-22T11:35:38.635Z,50.40
2019-02-22T11:38:07.033Z,49.60
2019-02-22T11:40:35.905Z,50.20
2019-02-22T11:43:03.839Z,50.70
2019-02-22T11:45:31.755Z,51.10
2019-02-22T11:48:08.814Z,51.20
2019-02-22T11:50:30.958Z,49.20
2019-02-22T11:52:59.762Z,50.00
2019-02-22T11:55:28.291Z,50.30
2019-02-22T11:57:56.822Z,49.90
2019-02-22T12:00:25.928Z,50.30
2019-02-22T12:02:54.303Z,50.00
2019-02-22T12:05:23.071Z,48.20
2019-02-22T12:07:51.373Z,50.10
2019-02-22T12:10:19.601Z,48.00
2019-02-22T12:12:48.218Z,48.00
2019-02-22T12:15:16.192Z,46.30
2019-02-22T12:17:45.019Z,47.80
2019-02-22T12:20:13.275Z,48.90
2019-02-22T12:22:41.397Z,49.80
2019-02-22T12:25:08.809Z,49.90
2019-02-22T12:27:37.469Z,50.60
2019-02-22T12:30:07.353Z,50.10
2019-02-22T12:32:39.573Z,50.50
2019-02-22T12:35:07.852Z,49.60
2019-02-22T12:37:36.027Z,49.60
2019-02-22T12:40:04.691Z,50.30
2019-02-22T12:42:33.456Z,48.70
2019-02-22T12:45:03.228Z,49.10
2019-02-22T12:47:32.102Z,49.30
2019-02-22T12:49:59.798Z,48.60
2019-02-22T12:52:28.223Z,49.30
2019-02-22T12:54:56.592Z,48.70
2019-02-22T12:57:24.567Z,49.30
2019-02-22T12:59:53.178Z,49.30
2019-02-22T13:02:22.123Z,51.10
2019-02-22T13:04:51.023Z,52.70
2019-02-22T13:07:18.338Z,52.60
2019-02-22T13:09:46.507Z,53.40
2019-02-22T13:12:17.327Z,54.00
2019-02-22T13:14:44.883Z,54.40
2019-02-22T13:17:13.254Z,53.90
2019-02-22T13:19:41.832Z,53.70
2019-02-22T13:22:09.931Z,53.70
2019-02-22T13:24:42.511Z,53.90
2019-02-22T13:27:11.320Z,54.50
2019-02-22T13:29:39.489Z,54.40
2019-02-22T13:32:08.540Z,53.00
2019-02-22T13:34:35.905Z,52.70
2019-02-22T13:37:04.253Z,52.80
2019-02-22T13:39:36.500Z,52.30
2019-02-22T13:42:05.307Z,52.80
2019-02-22T13:44:36.184Z,52.60
2019-02-22T13:47:05.119Z,52.20
2019-02-22T13:49:33.582Z,51.60
2019-02-22T13:52:02.083Z,52.10
2019-02-22T13:54:30.844Z,52.50
2019-02-22T13:57:00.272Z,52.30
2019-02-22T13:59:28.311Z,52.30
2019-02-22T14:01:58.721Z,52.30
2019-02-22T14:04:27.024Z,52.30
2019-02-22T14:09:24.564Z,51.40
2019-02-22T14:11:53.171Z,51.90
2019-02-22T14:14:21.143Z,50.50
2019-02-22T14:16:50.177Z,51.20
2019-02-22T14:19:18.330Z,51.30
2019-02-22T14:24:14.579Z,50.60
2019-02-22T14:26:42.560Z,51.80
2019-02-22T14:29:11.238Z,51.10
2019-02-22T14:31:40.288Z,50.70
2019-02-22T14:34:08.794Z,50.10
2019-02-22T14:36:37.386Z,50.90
2019-02-22T14:39:06.540Z,49.60
2019-02-22T14:41:37.361Z,49.90
2019-02-22T14:44:05.494Z,49.50
2019-02-22T14:46:33.455Z,50.20
2019-02-22T14:49:01.493Z,50.00
2019-02-22T14:51:29.154Z,50.80
2019-02-22T14:53:57.558Z,50.90
2019-02-22T14:56:25.681Z,50.70
2019-02-22T14:58:53.728Z,51.40
2019-02-22T15:03:50.160Z,50.80
2019-02-22T15:06:18.671Z,50.50
2019-02-22T15:08:47.632Z,51.60
2019-02-22T15:11:15.821Z,51.00
2019-02-22T15:13:44.696Z,51.60
2019-02-22T15:16:25.093Z,52.10
2019-02-22T15:18:53.164Z,52.20
2019-02-22T15:21:21.576Z,52.30
2019-02-22T15:23:49.902Z,51.80
2019-02-22T15:26:18.312Z,51.50
2019-02-22T15:28:46.065Z,52.00
2019-02-22T15:31:14.466Z,52.00
2019-02-22T15:33:42.638Z,51.50
2019-02-22T15:36:10.929Z,51.00
2019-02-22T15:38:38.761Z,52.00
2019-02-22T15:41:06.438Z,51.80
2019-02-22T15:43:33.776Z,52.50
2019-02-22T15:46:11.804Z,52.10
2019-02-22T15:48:32.424Z,52.10
2019-02-22T15:51:00.743Z,52.30
2019-02-22T15:53:28.849Z,52.20
2019-02-22T15:55:57.682Z,52.00
2019-02-22T15:58:26.110Z,52.50
2019-02-22T16:00:55.639Z,53.90
2019-02-22T16:03:24.072Z,53.10
2019-02-22T16:05:52.440Z,53.10
2019-02-22T16:08:20.504Z,53.10
2019-02-22T16:10:48.955Z,54.40
2019-02-22T16:13:17.490Z,54.40
2019-02-22T16:15:45.936Z,54.90
2019-02-22T16:18:13.790Z,55.00
2019-02-22T16:20:42.330Z,55.70
2019-02-22T16:23:10.092Z,55.60
2019-02-22T16:25:38.566Z,55.60
2019-02-22T16:28:06.552Z,55.70
2019-02-22T16:30:35.636Z,56.90
2019-02-22T16:33:04.796Z,56.10
2019-02-22T16:35:34.535Z,55.90
2019-02-22T16:38:02.630Z,56.70
2019-02-22T16:40:31.132Z,57.10
2019-02-22T16:43:00.281Z,57.20
2019-02-22T16:45:29.218Z,56.60
2019-02-22T16:47:57.581Z,57.20
2019-02-22T16:50:25.943Z,57.20
2019-02-22T16:52:53.975Z,57.00
2019-02-22T16:55:22.704Z,56.80
2019-02-22T16:57:51.303Z,56.80
2019-02-22T17:00:20.165Z,57.30
2019-02-22T17:02:48.369Z,57.30
2019-02-22T17:05:16.542Z,57.40
2019-02-22T17:07:44.687Z,57.80
2019-02-22T17:10:15.345Z,58.00
2019-02-22T17:12:44.677Z,58.90
2019-02-22T17:15:13.351Z,58.50
2019-02-22T17:17:41.693Z,59.10
2019-02-22T17:20:10.606Z,58.40
2019-02-22T17:22:39.499Z,58.50
2019-02-22T17:25:09.284Z,58.90
2019-02-22T17:27:37.885Z,59.00
2019-02-22T17:30:06.906Z,59.50
2019-02-22T17:32:35.564Z,59.30
2019-02-22T17:35:03.716Z,59.60
2019-02-22T17:37:32.071Z,60.20
2019-02-22T17:40:00.290Z,60.40
2019-02-22T17:42:29.400Z,61.00
2019-02-22T17:44:57.365Z,61.80
2019-02-22T17:47:26.248Z,62.10
2019-02-22T17:49:54.351Z,61.30
2019-02-22T17:52:23.357Z,61.00
2019-02-22T17:54:52.235Z,60.40
2019-02-22T17:57:20.694Z,60.80
2019-02-22T17:59:49.453Z,60.80
2019-02-22T18:02:19.896Z,60.80
2019-02-22T18:04:48.292Z,61.20
2019-02-22T18:07:16.873Z,61.90
2019-02-22T18:09:44.555Z,61.10
2019-02-22T18:12:12.937Z,61.30
2019-02-22T18:14:41.973Z,60.60
2019-02-22T18:17:10.117Z,61.30
2019-02-22T18:19:38.621Z,61.50
2019-02-22T18:22:06.866Z,61.40
2019-02-22T18:24:35.222Z,61.10
2019-02-22T18:27:02.993Z,61.60
2019-02-22T18:29:35.482Z,61.70
2019-02-22T18:32:00.691Z,62.10
2019-02-22T18:34:28.770Z,61.40
2019-02-22T18:36:57.648Z,61.60
2019-02-22T18:39:25.709Z,62.10
2019-02-22T18:41:54.421Z,61.50
2019-02-22T18:46:53.753Z,61.50
2019-02-22T18:49:23.164Z,62.00
2019-02-22T18:51:51.557Z,62.40
2019-02-22T18:54:20.823Z,61.80
2019-02-22T18:56:49.276Z,62.40
2019-02-22T18:59:17.575Z,62.60
2019-02-22T19:01:46.646Z,63.00
2019-02-22T19:04:15.426Z,63.80
2019-02-22T19:06:43.644Z,63.10
2019-02-22T19:09:12.619Z,63.10
2019-02-22T19:11:41.112Z,63.50
2019-02-22T19:14:09.990Z,62.60
2019-02-22T19:16:38.769Z,62.60
2019-02-22T19:19:07.505Z,63.40
2019-02-22T19:21:36.421Z,63.60
2019-02-22T19:24:04.934Z,64.10
2019-02-22T19:26:32.375Z,64.20
2019-02-22T19:29:01.003Z,64.80
2019-02-22T19:31:29.577Z,64.20
2019-02-22T19:33:58.274Z,63.50
2019-02-22T19:36:27.855Z,63.90
2019-02-22T19:38:57.807Z,63.80
2019-02-22T19:41:26.276Z,64.20
2019-02-22T19:43:54.629Z,63.70
2019-02-22T19:46:25.694Z,64.20
2019-02-22T19:48:53.387Z,64.80
2019-02-22T19:51:24.704Z,66.00
2019-02-22T19:53:52.450Z,64.80
2019-02-22T19:56:21.026Z,65.20
2019-02-22T19:58:49.349Z,66.40
2019-02-22T20:01:17.413Z,65.40
2019-02-22T20:06:14.644Z,65.00
2019-02-22T20:08:44.439Z,65.60
2019-02-22T20:11:12.145Z,65.00
2019-02-22T20:13:40.735Z,64.30
2019-02-22T20:16:08.799Z,64.20
2019-02-22T20:18:36.552Z,64.90
2019-02-22T20:21:04.843Z,64.20
2019-02-22T20:23:33.384Z,65.00
2019-02-22T20:26:01.287Z,65.70
2019-02-22T20:28:29.816Z,66.30
2019-02-22T20:30:58.223Z,66.60
2019-02-22T20:33:26.372Z,66.20
2019-02-22T20:35:54.703Z,66.20
2019-02-22T20:38:23.245Z,66.20
2019-02-22T20:40:50.950Z,66.50
2019-02-22T20:43:19.743Z,66.30
2019-02-22T20:45:47.771Z,65.60
2019-02-22T20:48:15.879Z,66.10
2019-02-22T20:50:45.955Z,66.30
2019-02-22T20:53:14.489Z,66.30
2019-02-22T20:55:42.337Z,65.80
2019-02-22T20:58:10.700Z,66.30
2019-02-22T21:00:38.952Z,65.50
2019-02-22T21:03:07.585Z,65.60
2019-02-22T21:05:35.708Z,65.70
2019-02-22T21:08:04.042Z,66.10
2019-02-22T21:10:32.144Z,66.10
2019-02-22T21:13:00.133Z,66.70
2019-02-22T21:15:28.424Z,66.90
2019-02-22T21:17:56.014Z,66.90
2019-02-22T21:20:24.007Z,67.50
2019-02-22T21:22:52.376Z,67.40
2019-02-22T21:25:20.773Z,67.80
2019-02-22T21:27:49.526Z,67.60
2019-02-22T21:30:17.695Z,67.30
2019-02-22T21:32:46.391Z,67.60
2019-02-22T21:35:14.499Z,66.60
2019-02-22T21:37:42.121Z,67.00
2019-02-22T21:40:10.640Z,67.10
2019-02-22T21:42:39.016Z,67.00
2019-02-22T21:45:07.520Z,66.10
2019-02-22T21:47:35.962Z,66.50
2019-02-22T21:50:04.129Z,66.90
2019-02-22T21:52:31.876Z,67.60
2019-02-22T21:54:59.543Z,67.50
2019-02-22T21:57:27.585Z,67.10
2019-02-22T21:59:55.737Z,67.40
2019-02-22T22:02:24.562Z,67.80
2019-02-22T22:04:52.369Z,67.40
2019-02-22T22:07:21.261Z,68.00
2019-02-22T22:09:49.314Z,68.10
2019-02-22T22:12:18.115Z,68.50
2019-02-22T22:14:46.143Z,67.40
2019-02-22T22:17:18.710Z,68.00
2019-02-22T22:19:46.741Z,68.10
2019-02-22T22:22:15.562Z,68.60
2019-02-22T22:24:43.898Z,69.00
2019-02-22T22:27:12.288Z,68.60
2019-02-22T22:29:40.369Z,67.90
2019-02-22T22:32:08.434Z,68.60
2019-02-22T22:34:37.211Z,68.40
2019-02-22T22:37:04.885Z,69.00
2019-02-22T22:39:35.607Z,68.80
2019-02-22T22:42:03.175Z,68.70
2019-02-22T22:44:31.535Z,68.20
2019-02-22T22:47:00.362Z,69.00
2019-02-22T22:49:28.451Z,68.80
2019-02-22T22:51:56.495Z,69.40
2019-02-22T22:54:24.947Z,69.10
2019-02-22T22:56:53.659Z,69.80
2019-02-22T22:59:22.000Z,69.60
2019-02-22T23:01:49.718Z,69.70
2019-02-22T23:04:18.469Z,69.80
2019-02-22T23:06:47.067Z,69.80
2019-02-22T23:09:19.338Z,69.90
2019-02-22T23:11:47.208Z,70.00
2019-02-22T23:14:15.166Z,69.70
2019-02-22T23:16:43.247Z,70.20
2019-02-22T23:19:11.663Z,70.20
2019-02-22T23:21:42.364Z,69.50
2019-02-22T23:24:10.515Z,69.50
2019-02-22T23:26:39.335Z,70.10
2019-02-22T23:29:07.864Z,70.00
2019-02-22T23:31:35.539Z,70.10
2019-02-22T23:34:03.963Z,69.50
2019-02-22T23:36:32.008Z,70.00
2019-02-22T23:39:00.399Z,70.20
2019-02-22T23:41:28.764Z,70.20
2019-02-22T23:43:56.344Z,69.00
2019-02-22T23:46:24.426Z,69.70
2019-02-22T23:48:52.152Z,70.10
2019-02-22T23:51:20.985Z,69.50
2019-02-22T23:53:48.759Z,69.60
2019-02-22T23:56:17.203Z,70.10
2019-02-22T23:58:45.869Z,69.90
